Terminal Aerodrome Forecast
Issued by NWS Aberdeen, SD

Current Version | Previous Version | Text Only | Print | Product List | Glossary On
Versions: 1 2 3 4 5 6 7 8 9 10 11 12 13 14 15 16 17 18 19 20 21 22 23 24 25 26 27 28 29 30 31 32 33 34 35 36 37 38
000
FTAK31 PAFA 241740
TAFABR
TAF
PABR 241740Z 2418/2518 05017G25KT 1 1/2SM -SN BLSN FEW035 OVC070
     FM250300 05020KT 1 1/2SM -SHSN BR BKN015 OVC025
     FM250700 06015KT 1 1/2SM -SN BR BKN025 OVC050
     FM251500 06015KT 1 1/2SM BR BKN050=

USA.gov is the U.S. government's official web portal to all federal, state and local government web resources and services.